createdAt,value
2022-12-25T00:02:06.258Z,58.74
2022-12-25T00:07:00.535Z,58.52
2022-12-25T00:11:53.938Z,58.75
2022-12-25T00:16:47.627Z,58.70
2022-12-25T00:21:40.847Z,59.01
2022-12-25T00:26:34.250Z,58.75
2022-12-25T00:31:28.443Z,58.71
2022-12-25T00:36:23.086Z,58.81
2022-12-25T00:41:43.137Z,58.88
2022-12-25T00:46:37.993Z,58.95
2022-12-25T00:51:31.754Z,59.20
2022-12-25T00:56:24.717Z,59.11
2022-12-25T01:01:18.735Z,58.86
2022-12-25T01:06:13.790Z,58.89
2022-12-25T01:11:09.429Z,58.86
2022-12-25T01:16:12.419Z,58.88
2022-12-25T01:21:11.864Z,58.98
2022-12-25T01:26:10.174Z,58.72
2022-12-25T01:31:04.596Z,58.41
2022-12-25T01:35:59.056Z,58.67
2022-12-25T01:40:51.696Z,58.60
2022-12-25T01:45:47.693Z,58.76
2022-12-25T01:50:43.672Z,58.63
2022-12-25T01:55:38.417Z,58.75
2022-12-25T02:00:32.396Z,58.83
2022-12-25T02:05:32.580Z,58.70
2022-12-25T02:10:25.934Z,58.69
2022-12-25T02:15:23.094Z,58.68
2022-12-25T02:20:40.503Z,58.81
2022-12-25T02:25:33.590Z,58.89
2022-12-25T02:30:27.457Z,58.88
2022-12-25T02:35:31.645Z,58.74
2022-12-25T02:40:47.113Z,58.91
2022-12-25T02:46:12.081Z,58.99
2022-12-25T02:51:28.309Z,58.96
2022-12-25T02:56:41.221Z,58.90
2022-12-25T03:01:55.263Z,58.82
2022-12-25T03:07:11.652Z,59.07
2022-12-25T03:12:17.013Z,59.13
2022-12-25T03:17:10.686Z,58.91
2022-12-25T03:22:24.265Z,58.98
2022-12-25T03:27:17.732Z,58.91
2022-12-25T03:32:17.932Z,59.10
2022-12-25T03:37:29.686Z,59.23
2022-12-25T03:42:35.749Z,59.33
2022-12-25T03:47:52.137Z,59.24
2022-12-25T03:53:06.402Z,58.92
2022-12-25T03:58:18.360Z,58.93
2022-12-25T04:03:30.133Z,59.11
2022-12-25T04:08:41.913Z,59.16
2022-12-25T04:13:53.285Z,59.27
2022-12-25T04:19:05.669Z,59.25
2022-12-25T04:24:17.675Z,58.93
2022-12-25T04:29:29.575Z,58.80
2022-12-25T04:34:41.519Z,59.22
2022-12-25T04:39:35.214Z,59.19
2022-12-25T04:44:28.266Z,59.49
2022-12-25T04:49:22.637Z,59.08
2022-12-25T04:54:16.582Z,59.31
2022-12-25T04:59:09.642Z,59.32
2022-12-25T05:04:03.276Z,59.18
2022-12-25T05:08:56.776Z,59.14
2022-12-25T05:13:49.797Z,59.17
2022-12-25T05:18:43.111Z,59.09
2022-12-25T05:23:37.549Z,59.22
2022-12-25T05:28:31.848Z,58.98
2022-12-25T05:33:25.610Z,58.92
2022-12-25T05:38:19.282Z,58.80
2022-12-25T05:43:12.585Z,58.63
2022-12-25T05:48:07.084Z,58.67
2022-12-25T05:53:06.095Z,58.59
2022-12-25T05:58:02.006Z,58.71
2022-12-25T06:02:55.927Z,58.76
2022-12-25T06:07:49.865Z,58.75
2022-12-25T06:12:43.436Z,58.73
2022-12-25T06:17:37.079Z,58.90
2022-12-25T06:22:34.312Z,58.87
2022-12-25T06:27:28.873Z,58.83
2022-12-25T06:32:22.701Z,58.95
2022-12-25T06:37:16.524Z,58.72
2022-12-25T06:42:10.664Z,58.78
2022-12-25T06:47:04.030Z,58.94
2022-12-25T06:51:58.323Z,58.99
2022-12-25T06:56:52.197Z,59.36
2022-12-25T07:01:54.890Z,58.43
2022-12-25T07:06:48.114Z,57.92
2022-12-25T07:11:41.571Z,57.57
2022-12-25T07:16:34.980Z,56.89
2022-12-25T07:21:28.739Z,56.80
2022-12-25T07:26:22.073Z,56.46
2022-12-25T07:31:17.867Z,55.86
2022-12-25T07:36:13.047Z,55.49
2022-12-25T07:41:09.440Z,55.82
2022-12-25T07:46:03.065Z,55.62
2022-12-25T07:51:00.494Z,55.42
2022-12-25T07:56:07.815Z,55.51
2022-12-25T08:01:13.645Z,55.35
2022-12-25T08:06:09.334Z,55.09
2022-12-25T08:11:03.716Z,55.84
2022-12-25T08:16:02.454Z,55.82
2022-12-25T08:20:56.345Z,55.87
2022-12-25T08:25:49.803Z,55.98
2022-12-25T08:30:43.771Z,56.00
2022-12-25T08:35:37.223Z,56.20
2022-12-25T08:40:30.190Z,55.93
2022-12-25T08:45:22.910Z,56.22
2022-12-25T08:50:17.009Z,56.29
2022-12-25T08:55:11.276Z,56.46
2022-12-25T09:00:05.726Z,56.49
2022-12-25T09:04:59.059Z,56.32
2022-12-25T09:09:52.291Z,56.51
2022-12-25T09:14:45.751Z,56.30
2022-12-25T09:19:38.782Z,56.43
2022-12-25T09:24:32.462Z,56.46
2022-12-25T09:29:25.647Z,56.27
2022-12-25T09:34:19.298Z,56.25
2022-12-25T09:39:13.161Z,56.32
2022-12-25T09:44:19.525Z,56.32
2022-12-25T09:49:40.112Z,56.24
2022-12-25T09:54:47.402Z,56.47
2022-12-25T09:59:43.141Z,56.70
2022-12-25T10:05:21.630Z,56.68
2022-12-25T10:10:35.785Z,56.82
2022-12-25T10:15:35.794Z,56.88
2022-12-25T10:20:46.955Z,57.26
2022-12-25T10:25:41.205Z,57.42
2022-12-25T10:30:35.756Z,57.28
2022-12-25T10:35:31.292Z,56.87
2022-12-25T10:40:23.792Z,56.92
2022-12-25T10:45:17.926Z,57.00
2022-12-25T10:50:19.058Z,56.89
2022-12-25T10:55:14.037Z,57.16
2022-12-25T11:00:24.664Z,57.30
2022-12-25T11:05:36.203Z,57.33
2022-12-25T11:10:39.728Z,57.14
2022-12-25T11:15:42.311Z,57.17
2022-12-25T11:20:40.027Z,57.13
2022-12-25T11:25:35.970Z,57.28
2022-12-25T11:30:34.704Z,56.62
2022-12-25T11:35:32.258Z,56.90
2022-12-25T11:40:29.680Z,56.92
2022-12-25T11:45:36.678Z,57.28
2022-12-25T11:50:35.158Z,57.35
2022-12-25T11:55:33.675Z,57.73
2022-12-25T12:00:29.980Z,58.66
2022-12-25T12:05:37.242Z,58.52
2022-12-25T12:10:48.253Z,58.53
2022-12-25T12:15:41.456Z,58.51
2022-12-25T12:20:36.499Z,58.13
2022-12-25T12:25:31.019Z,58.31
2022-12-25T12:30:31.383Z,58.30
2022-12-25T12:35:31.158Z,58.12
2022-12-25T12:40:34.479Z,58.06
2022-12-25T12:45:54.077Z,58.40
2022-12-25T12:50:48.555Z,58.38
2022-12-25T12:55:42.482Z,58.13
2022-12-25T13:01:13.539Z,58.19
2022-12-25T13:06:17.901Z,58.19
2022-12-25T13:11:21.818Z,58.18
2022-12-25T13:16:25.181Z,58.19
2022-12-25T13:21:23.276Z,58.25
2022-12-25T13:26:17.414Z,58.12
2022-12-25T13:31:32.309Z,58.00
2022-12-25T13:36:27.562Z,58.11
2022-12-25T13:41:41.221Z,58.08
2022-12-25T13:46:35.088Z,57.97
2022-12-25T13:51:28.697Z,58.11
2022-12-25T13:56:22.952Z,58.08
2022-12-25T14:01:17.189Z,57.98
2022-12-25T14:06:24.175Z,57.92
2022-12-25T14:11:21.043Z,58.08
2022-12-25T14:16:18.023Z,57.96
2022-12-25T14:21:23.940Z,57.92
2022-12-25T14:26:32.395Z,57.90
2022-12-25T14:31:25.481Z,57.81
2022-12-25T14:36:19.480Z,57.88
2022-12-25T14:41:42.534Z,57.67
2022-12-25T14:46:35.784Z,57.65
2022-12-25T14:51:30.570Z,57.80
2022-12-25T14:56:25.181Z,57.76
2022-12-25T15:01:42.211Z,57.82
2022-12-25T15:06:36.124Z,57.88
2022-12-25T15:11:30.991Z,57.67
2022-12-25T15:16:27.008Z,57.56
2022-12-25T15:21:26.594Z,57.80
2022-12-25T15:26:20.021Z,57.76
2022-12-25T15:31:27.900Z,57.66
2022-12-25T15:36:21.420Z,57.65
2022-12-25T15:41:37.513Z,57.50
2022-12-25T15:46:31.154Z,57.54
2022-12-25T15:51:23.790Z,57.51
2022-12-25T15:56:16.875Z,57.67
2022-12-25T16:01:18.075Z,57.72
2022-12-25T16:06:12.524Z,57.64
2022-12-25T16:11:06.470Z,57.55
2022-12-25T16:16:00.556Z,57.71
2022-12-25T16:20:55.051Z,57.64
2022-12-25T16:25:48.606Z,57.59
2022-12-25T16:30:42.749Z,57.43
2022-12-25T16:35:35.481Z,57.63
2022-12-25T16:40:29.476Z,57.52
2022-12-25T16:45:23.341Z,57.51
2022-12-25T16:50:17.426Z,57.47
2022-12-25T16:55:10.332Z,57.49
2022-12-25T17:00:03.653Z,57.53
2022-12-25T17:04:57.428Z,57.46
2022-12-25T17:09:51.100Z,57.44
2022-12-25T17:14:44.604Z,57.27
2022-12-25T17:19:39.954Z,57.45
2022-12-25T17:24:35.771Z,57.40
2022-12-25T17:29:30.790Z,57.44
2022-12-25T17:34:24.170Z,57.29
2022-12-25T17:39:17.948Z,57.10
2022-12-25T17:44:11.534Z,57.34
2022-12-25T17:49:06.484Z,57.18
2022-12-25T17:54:03.305Z,57.11
2022-12-25T17:58:59.233Z,57.22
2022-12-25T18:03:52.258Z,57.14
2022-12-25T18:08:46.237Z,57.13
2022-12-25T18:13:41.064Z,57.08
2022-12-25T18:18:36.242Z,57.30
2022-12-25T18:23:29.203Z,57.28
2022-12-25T18:28:22.359Z,57.02
2022-12-25T18:33:16.489Z,56.96
2022-12-25T18:38:10.258Z,57.21
2022-12-25T18:43:03.883Z,56.96
2022-12-25T18:47:57.390Z,56.85
2022-12-25T18:52:52.431Z,56.93
2022-12-25T18:57:45.884Z,56.90
2022-12-25T19:02:39.674Z,56.85
2022-12-25T19:07:33.873Z,57.00
2022-12-25T19:12:27.538Z,56.97
2022-12-25T19:17:20.613Z,56.96
2022-12-25T19:22:14.477Z,57.14
2022-12-25T19:27:08.232Z,57.19
2022-12-25T19:32:02.000Z,57.05
2022-12-25T19:36:56.822Z,57.23
2022-12-25T19:41:50.379Z,56.90
2022-12-25T19:46:43.279Z,56.39
2022-12-25T19:51:40.100Z,56.01
2022-12-25T19:56:34.091Z,55.81
2022-12-25T20:01:29.785Z,55.94
2022-12-25T20:06:26.807Z,55.52
2022-12-25T20:11:20.188Z,55.54
2022-12-25T20:16:13.820Z,55.62
2022-12-25T20:21:11.317Z,56.36
2022-12-25T20:26:06.069Z,56.67
2022-12-25T20:31:00.115Z,56.86
2022-12-25T20:35:55.398Z,56.86
2022-12-25T20:41:25.269Z,56.68
2022-12-25T20:46:02.661Z,56.77
2022-12-25T20:51:12.281Z,57.09
2022-12-25T20:56:07.727Z,57.08
2022-12-25T21:01:05.068Z,56.97
2022-12-25T21:05:58.427Z,56.99
2022-12-25T21:10:53.457Z,56.80
2022-12-25T21:15:50.666Z,56.63
2022-12-25T21:20:50.953Z,56.90
2022-12-25T21:25:46.891Z,56.69
2022-12-25T21:30:40.289Z,56.77
2022-12-25T21:35:37.858Z,57.07
2022-12-25T21:40:31.784Z,57.20
2022-12-25T21:45:25.832Z,56.85
2022-12-25T21:50:39.420Z,57.03
2022-12-25T21:55:35.409Z,57.36
2022-12-25T22:00:29.249Z,57.56
2022-12-25T22:05:40.212Z,57.55
2022-12-25T22:10:36.537Z,57.51
2022-12-25T22:15:47.991Z,57.55
2022-12-25T22:20:42.488Z,57.50
2022-12-25T22:25:36.285Z,57.55
2022-12-25T22:30:29.590Z,57.86
2022-12-25T22:35:23.532Z,58.03
2022-12-25T22:40:18.314Z,57.88
2022-12-25T22:45:13.735Z,57.99
2022-12-25T22:50:08.593Z,57.80
2022-12-25T22:55:03.063Z,57.56
2022-12-25T22:59:56.420Z,57.77
2022-12-25T23:04:51.058Z,57.58
2022-12-25T23:09:44.954Z,58.12
2022-12-25T23:14:42.112Z,57.79
2022-12-25T23:19:53.655Z,57.47
2022-12-25T23:25:05.965Z,57.50
2022-12-25T23:30:00.239Z,57.50
2022-12-25T23:34:54.643Z,57.62
2022-12-25T23:39:48.252Z,57.50
2022-12-25T23:44:40.490Z,57.33
2022-12-25T23:49:34.295Z,57.33
2022-12-25T23:54:29.570Z,57.20
2022-12-25T23:59:23.905Z,57.08
